Time;durP1;ratioP1;P1;durP2;ratioP2;P2;SDS_P1;SDS_P2;PMS_P1;PMS_P2;Temp;Humidity;BMP_temperature;BMP_pressure;BME280_temperature;BME280_humidity;BME280_pressure;Samples;Min_cycle;Max_cycle;Signal;HPM_P1;HPM_P2
2021/06/07 00:01:41;;;;;;;1.65;1.48;;;;;;;;;;5076168;28;20048;-91
2021/06/07 00:04:10;;;;;;;3.08;1.40;;;;;;;;;;5073786;28;20037;-91
2021/06/07 00:06:39;;;;;;;2.45;1.60;;;;;;;;;;5055345;28;20119;-90
2021/06/07 00:09:09;;;;;;;1.70;1.38;;;;;;;;;;5069397;28;20510;-91
2021/06/07 00:11:40;;;;;;;2.28;1.35;;;;;;;;;;5074767;28;20563;-91
2021/06/07 00:14:11;;;;;;;3.20;1.42;;;;;;;;;;5056434;28;20407;-91
2021/06/07 00:16:40;;;;;;;4.20;1.73;;;;;;;;;;5069719;28;20106;-90
2021/06/07 00:19:09;;;;;;;2.20;1.45;;;;;;;;;;5054696;28;20055;-91
2021/06/07 00:21:38;;;;;;;3.40;1.50;;;;;;;;;;5055161;28;20060;-91
2021/06/07 00:24:07;;;;;;;1.80;1.45;;;;;;;;;;5054829;28;20068;-91
2021/06/07 00:26:36;;;;;;;8.80;1.48;;;;;;;;;;5054011;28;20079;-92
2021/06/07 00:29:06;;;;;;;2.38;1.40;;;;;;;;;;5036882;28;20044;-90
2021/06/07 00:31:35;;;;;;;2.15;1.33;;;;;;;;;;5054442;28;20060;-90
2021/06/07 00:34:05;;;;;;;2.47;1.23;;;;;;;;;;5032495;28;20087;-91
2021/06/07 00:36:34;;;;;;;3.60;1.60;;;;;;;;;;5034360;28;20057;-91
2021/06/07 00:39:06;;;;;;;3.60;1.10;;;;;;;;;;5034614;28;20085;-91
2021/06/07 00:41:35;;;;;;;2.38;1.45;;;;;;;;;;5034852;28;20056;-90
2021/06/07 00:44:06;;;;;;;2.55;1.40;;;;;;;;;;5034819;28;20049;-91
2021/06/07 00:46:36;;;;;;;1.25;1.13;;;;;;;;;;5034006;28;20049;-91
2021/06/07 00:49:06;;;;;;;2.33;1.65;;;;;;;;;;5034281;28;20050;-90
2021/06/07 00:51:35;;;;;;;2.38;1.50;;;;;;;;;;5033862;28;20045;-91
2021/06/07 00:54:04;;;;;;;1.23;1.13;;;;;;;;;;5033518;28;20046;-90
2021/06/07 00:56:32;;;;;;;3.22;1.48;;;;;;;;;;5037535;28;20450;-90
2021/06/07 00:59:00;;;;;;;3.35;1.40;;;;;;;;;;5053541;28;20088;-90
2021/06/07 01:01:29;;;;;;;4.57;1.55;;;;;;;;;;5054287;28;20037;-91
2021/06/07 01:04:00;;;;;;;6.03;1.50;;;;;;;;;;5036608;22;20537;-61
2021/06/07 01:06:28;;;;;;;2.95;1.45;;;;;;;;;;5009324;28;20073;-61
2021/06/07 01:08:56;;;;;;;2.00;1.30;;;;;;;;;;5009975;28;20266;-61
2021/06/07 01:11:24;;;;;;;2.80;1.17;;;;;;;;;;5011101;28;20128;-61
2021/06/07 01:13:53;;;;;;;3.10;1.30;;;;;;;;;;5010906;28;20050;-61
2021/06/07 01:16:21;;;;;;;2.58;1.50;;;;;;;;;;5010617;28;20081;-61
2021/06/07 01:18:49;;;;;;;3.42;1.48;;;;;;;;;;5009061;28;20073;-61
2021/06/07 01:21:19;;;;;;;1.75;1.40;;;;;;;;;;5009151;28;20045;-61
2021/06/07 01:23:48;;;;;;;1.63;1.20;;;;;;;;;;5010475;28;20497;-61
2021/06/07 01:26:17;;;;;;;5.53;1.50;;;;;;;;;;5008972;28;20057;-61
2021/06/07 01:28:45;;;;;;;2.17;1.50;;;;;;;;;;4991040;28;20082;-61
2021/06/07 01:31:15;;;;;;;3.53;1.50;;;;;;;;;;4991858;28;20129;-61
2021/06/07 01:33:44;;;;;;;2.13;1.60;;;;;;;;;;4991114;28;20046;-61
2021/06/07 01:36:12;;;;;;;1.88;1.30;;;;;;;;;;4988884;28;20110;-61
2021/06/07 01:38:40;;;;;;;1.90;1.30;;;;;;;;;;5009322;28;20052;-61
2021/06/07 01:41:11;;;;;;;1.92;1.33;;;;;;;;;;5010861;28;20132;-61
2021/06/07 01:43:39;;;;;;;2.92;1.50;;;;;;;;;;5010379;28;20057;-61
2021/06/07 01:46:07;;;;;;;4.30;1.60;;;;;;;;;;5010090;28;20054;-61
2021/06/07 01:48:36;;;;;;;2.05;1.20;;;;;;;;;;5005929;28;20081;-61
2021/06/07 01:51:05;;;;;;;2.20;1.40;;;;;;;;;;5010514;28;20061;-61
2021/06/07 01:53:33;;;;;;;5.38;1.30;;;;;;;;;;5010776;28;20474;-61
2021/06/07 01:56:02;;;;;;;2.65;1.20;;;;;;;;;;5010621;28;20050;-61
2021/06/07 01:58:31;;;;;;;1.52;1.10;;;;;;;;;;5009658;28;20050;-61
2021/06/07 02:01:00;;;;;;;3.03;1.50;;;;;;;;;;5010196;28;20042;-61
2021/06/07 02:03:28;;;;;;;2.38;1.70;;;;;;;;;;5009434;28;20136;-61
2021/06/07 02:05:56;;;;;;;2.63;1.38;;;;;;;;;;5010441;28;20080;-61
2021/06/07 02:08:25;;;;;;;3.90;1.60;;;;;;;;;;5009793;28;20054;-61
2021/06/07 02:10:54;;;;;;;1.75;1.23;;;;;;;;;;5004470;28;20251;-61
2021/06/07 02:13:22;;;;;;;1.42;1.30;;;;;;;;;;5010639;28;20048;-61
2021/06/07 02:15:54;;;;;;;1.30;1.17;;;;;;;;;;5008632;28;20042;-61
2021/06/07 02:18:22;;;;;;;2.10;1.30;;;;;;;;;;5009688;28;20050;-61
2021/06/07 02:20:50;;;;;;;1.60;1.50;;;;;;;;;;5006773;28;20062;-61
2021/06/07 02:23:18;;;;;;;1.80;1.33;;;;;;;;;;5010563;28;20053;-61
2021/06/07 02:25:45;;;;;;;1.70;1.58;;;;;;;;;;5008940;28;20052;-61
2021/06/07 02:28:14;;;;;;;1.38;1.15;;;;;;;;;;5008503;28;20044;-61
2021/06/07 02:30:43;;;;;;;2.63;1.55;;;;;;;;;;5005155;28;20092;-61
2021/06/07 02:33:12;;;;;;;1.70;1.40;;;;;;;;;;5015949;28;20045;-61
2021/06/07 02:35:41;;;;;;;1.73;1.27;;;;;;;;;;5007913;28;20482;-61
2021/06/07 02:38:09;;;;;;;1.80;1.40;;;;;;;;;;5010453;28;20053;-61
2021/06/07 02:40:37;;;;;;;2.65;1.58;;;;;;;;;;5004628;28;20042;-61
2021/06/07 02:43:05;;;;;;;2.00;1.38;;;;;;;;;;5010301;28;20137;-61
2021/06/07 02:45:33;;;;;;;2.45;1.38;;;;;;;;;;5010017;28;20052;-61
2021/06/07 02:48:02;;;;;;;1.90;1.33;;;;;;;;;;4996988;28;20093;-61
2021/06/07 02:50:33;;;;;;;1.88;1.20;;;;;;;;;;5009729;28;20048;-61
2021/06/07 02:53:01;;;;;;;3.22;1.33;;;;;;;;;;5010408;28;20489;-61
2021/06/07 02:55:30;;;;;;;2.30;1.40;;;;;;;;;;5009501;28;20034;-61
2021/06/07 02:57:59;;;;;;;1.98;1.48;;;;;;;;;;5009894;28;20054;-61
2021/06/07 03:00:28;;;;;;;4.85;1.50;;;;;;;;;;5009372;28;20046;-61
2021/06/07 03:02:55;;;;;;;3.20;1.20;;;;;;;;;;5000151;28;20057;-61
2021/06/07 03:05:24;;;;;;;2.95;1.40;;;;;;;;;;5009794;28;20057;-61
2021/06/07 03:07:53;;;;;;;3.10;1.50;;;;;;;;;;5009659;28;20413;-61
2021/06/07 03:10:21;;;;;;;1.88;1.38;;;;;;;;;;5014820;28;20503;-61
2021/06/07 03:12:49;;;;;;;3.17;1.33;;;;;;;;;;5013504;28;20064;-61
2021/06/07 03:15:18;;;;;;;2.75;1.52;;;;;;;;;;5012204;28;20077;-61
2021/06/07 03:17:46;;;;;;;4.03;1.60;;;;;;;;;;5012837;28;20056;-61
2021/06/07 03:20:15;;;;;;;7.15;1.42;;;;;;;;;;5012757;28;20041;-61
2021/06/07 03:22:43;;;;;;;2.40;1.77;;;;;;;;;;5013701;28;20081;-61
2021/06/07 03:25:13;;;;;;;3.58;1.50;;;;;;;;;;5013028;28;20044;-61
2021/06/07 03:27:41;;;;;;;6.15;1.58;;;;;;;;;;5012430;28;20052;-61
2021/06/07 03:30:10;;;;;;;2.30;1.52;;;;;;;;;;5011287;28;20054;-61
2021/06/07 03:32:38;;;;;;;1.67;1.40;;;;;;;;;;5012333;28;20048;-61
2021/06/07 03:35:08;;;;;;;2.92;1.40;;;;;;;;;;5013596;28;20042;-61
2021/06/07 03:37:35;;;;;;;3.25;1.48;;;;;;;;;;5013043;28;20060;-61
2021/06/07 03:40:05;;;;;;;1.73;1.60;;;;;;;;;;5013267;28;20056;-61
2021/06/07 03:42:35;;;;;;;2.60;1.60;;;;;;;;;;5011613;28;20060;-61
2021/06/07 03:45:03;;;;;;;2.25;1.40;;;;;;;;;;5010272;28;20053;-61
2021/06/07 03:47:31;;;;;;;3.35;1.50;;;;;;;;;;5005690;28;20397;-61
2021/06/07 03:49:59;;;;;;;2.72;1.45;;;;;;;;;;5012570;28;20129;-61
2021/06/07 03:52:27;;;;;;;2.50;1.42;;;;;;;;;;5012250;28;20049;-61
2021/06/07 03:54:54;;;;;;;1.85;1.20;;;;;;;;;;5013146;28;20046;-61
2021/06/07 03:57:22;;;;;;;3.35;1.40;;;;;;;;;;5012160;28;20046;-61
2021/06/07 03:59:51;;;;;;;2.22;1.38;;;;;;;;;;5011393;28;20085;-61
2021/06/07 04:02:20;;;;;;;2.80;1.67;;;;;;;;;;5009127;28;20140;-61
2021/06/07 04:04:48;;;;;;;5.68;1.75;;;;;;;;;;5012557;28;20052;-61
2021/06/07 04:07:16;;;;;;;2.05;1.75;;;;;;;;;;5012118;28;20075;-61
2021/06/07 04:09:43;;;;;;;3.72;1.50;;;;;;;;;;5021289;28;20552;-61
2021/06/07 04:12:11;;;;;;;2.83;1.48;;;;;;;;;;5007211;28;20141;-61
2021/06/07 04:14:39;;;;;;;1.98;1.70;;;;;;;;;;5011430;28;20520;-61
2021/06/07 04:17:09;;;;;;;4.30;1.63;;;;;;;;;;5010404;28;20065;-61
2021/06/07 04:19:37;;;;;;;2.85;1.67;;;;;;;;;;5010396;28;20053;-61
2021/06/07 04:22:06;;;;;;;4.22;1.90;;;;;;;;;;5009618;28;20046;-61
2021/06/07 04:24:33;;;;;;;2.75;1.80;;;;;;;;;;5011533;28;20140;-61
2021/06/07 04:27:01;;;;;;;3.42;1.90;;;;;;;;;;5011107;28;20145;-61
2021/06/07 04:29:29;;;;;;;3.55;2.30;;;;;;;;;;5012014;28;20078;-61
2021/06/07 04:31:57;;;;;;;3.42;2.20;;;;;;;;;;5010177;28;20057;-61
2021/06/07 04:34:26;;;;;;;2.05;1.75;;;;;;;;;;5012429;28;20465;-61
2021/06/07 04:36:54;;;;;;;2.70;2.00;;;;;;;;;;5011449;28;20420;-61
2021/06/07 04:39:22;;;;;;;2.63;1.90;;;;;;;;;;5010371;28;20053;-61
2021/06/07 04:41:50;;;;;;;3.50;2.03;;;;;;;;;;5011456;28;20072;-61
2021/06/07 04:44:18;;;;;;;3.95;2.65;;;;;;;;;;5011076;28;20071;-61
2021/06/07 04:46:46;;;;;;;3.22;2.03;;;;;;;;;;5008614;28;20061;-61
2021/06/07 04:49:13;;;;;;;3.55;2.10;;;;;;;;;;5012390;28;20050;-61
2021/06/07 04:51:43;;;;;;;3.03;2.20;;;;;;;;;;5018330;28;20148;-61
2021/06/07 04:54:12;;;;;;;7.03;2.50;;;;;;;;;;5011853;28;20045;-61
2021/06/07 04:56:40;;;;;;;2.83;2.15;;;;;;;;;;5009758;28;20053;-61
2021/06/07 04:59:07;;;;;;;4.50;2.20;;;;;;;;;;5012488;28;20052;-60
2021/06/07 05:01:36;;;;;;;4.10;2.47;;;;;;;;;;5009511;28;20050;-61
2021/06/07 05:04:04;;;;;;;2.55;2.20;;;;;;;;;;4999742;28;20061;-61
2021/06/07 05:06:31;;;;;;;3.45;2.47;;;;;;;;;;5008992;28;20136;-60
2021/06/07 05:09:01;;;;;;;3.75;2.30;;;;;;;;;;5015793;28;20136;-60
2021/06/07 05:11:29;;;;;;;2.58;2.35;;;;;;;;;;5019596;28;20038;-60
2021/06/07 05:13:56;;;;;;;3.03;2.40;;;;;;;;;;4998914;28;20064;-60
2021/06/07 05:16:25;;;;;;;2.85;2.28;;;;;;;;;;5009187;28;20060;-60
2021/06/07 05:18:53;;;;;;;6.72;2.22;;;;;;;;;;5012001;28;20050;-60
2021/06/07 05:21:21;;;;;;;2.60;2.17;;;;;;;;;;5010234;28;20084;-60
2021/06/07 05:23:49;;;;;;;4.32;2.67;;;;;;;;;;5007911;28;20516;-60
2021/06/07 05:26:18;;;;;;;5.40;4.75;;;;;;;;;;5010870;28;20096;-60
2021/06/07 05:28:47;;;;;;;6.05;3.10;;;;;;;;;;5011451;28;20351;-60
2021/06/07 05:31:15;;;;;;;4.22;2.50;;;;;;;;;;5009578;28;20120;-60
2021/06/07 05:33:43;;;;;;;3.22;1.90;;;;;;;;;;5008870;28;20133;-60
2021/06/07 05:36:11;;;;;;;3.25;2.40;;;;;;;;;;5006939;28;20113;-60
2021/06/07 05:38:38;;;;;;;4.53;3.08;;;;;;;;;;5010198;28;20482;-60
2021/06/07 05:41:06;;;;;;;3.70;2.30;;;;;;;;;;5011608;28;20128;-60
2021/06/07 05:43:35;;;;;;;2.50;2.30;;;;;;;;;;5009965;28;20065;-60
2021/06/07 05:46:03;;;;;;;2.90;2.17;;;;;;;;;;5010644;28;20054;-60
2021/06/07 05:48:31;;;;;;;2.85;1.90;;;;;;;;;;5010464;28;20455;-60
2021/06/07 05:51:00;;;;;;;3.67;1.70;;;;;;;;;;5011091;28;20042;-60
2021/06/07 05:53:28;;;;;;;3.67;1.73;;;;;;;;;;5010898;28;20409;-60
2021/06/07 05:55:57;;;;;;;3.70;1.70;;;;;;;;;;5010235;28;20089;-60
2021/06/07 05:58:26;;;;;;;3.17;1.80;;;;;;;;;;5009815;28;20081;-60
2021/06/07 06:00:55;;;;;;;5.75;2.15;;;;;;;;;;5009295;28;20050;-60
2021/06/07 06:03:23;;;;;;;1.73;1.50;;;;;;;;;;5005987;28;20069;-60
2021/06/07 06:05:51;;;;;;;5.13;2.10;;;;;;;;;;5005992;28;20057;-59
2021/06/07 06:08:19;;;;;;;2.30;1.70;;;;;;;;;;5003484;28;20152;-61
2021/06/07 06:10:47;;;;;;;2.40;1.80;;;;;;;;;;5014262;28;20405;-61
2021/06/07 06:13:35;;;;;;;1.95;1.60;;;;;;;;;;5017983;28;20046;-62
2021/06/07 06:16:05;;;;;;;2.67;1.50;;;;;;;;;;5009555;28;20046;-61
2021/06/07 06:18:37;;;;;;;1.48;1.30;;;;;;;;;;5010478;28;20049;-61
2021/06/07 06:21:05;;;;;;;3.83;1.50;;;;;;;;;;4997682;28;20046;-61
2021/06/07 06:23:33;;;;;;;2.90;1.27;;;;;;;;;;5010683;28;20057;-61
2021/06/07 06:26:03;;;;;;;2.97;1.52;;;;;;;;;;5006814;28;20168;-61
2021/06/07 06:28:31;;;;;;;4.15;1.60;;;;;;;;;;5010078;28;20133;-61
2021/06/07 06:30:59;;;;;;;2.30;1.60;;;;;;;;;;5000951;28;20074;-61
2021/06/07 06:33:28;;;;;;;5.00;1.95;;;;;;;;;;5011612;28;20387;-61
2021/06/07 06:35:56;;;;;;;2.63;1.70;;;;;;;;;;5021988;28;20092;-61
2021/06/07 06:38:24;;;;;;;3.47;1.92;;;;;;;;;;5008874;28;20111;-61
2021/06/07 06:40:53;;;;;;;3.92;1.90;;;;;;;;;;5010436;28;20141;-62
2021/06/07 06:43:21;;;;;;;3.33;2.00;;;;;;;;;;5002819;28;20501;-62
2021/06/07 06:45:49;;;;;;;2.20;1.42;;;;;;;;;;5012020;28;20093;-62
2021/06/07 06:48:17;;;;;;;3.20;1.45;;;;;;;;;;5011146;28;20049;-61
2021/06/07 06:50:47;;;;;;;2.97;1.63;;;;;;;;;;5012270;28;20049;-62
2021/06/07 06:53:17;;;;;;;2.10;1.75;;;;;;;;;;5013674;28;20483;-62
2021/06/07 06:55:45;;;;;;;3.35;1.30;;;;;;;;;;5013044;28;20046;-62
2021/06/07 06:58:13;;;;;;;1.98;1.45;;;;;;;;;;5012322;28;20100;-62
2021/06/07 07:00:42;;;;;;;2.35;1.60;;;;;;;;;;5012565;28;20050;-62
2021/06/07 07:03:12;;;;;;;2.08;1.50;;;;;;;;;;5011578;28;20069;-62
2021/06/07 07:05:40;;;;;;;2.45;1.30;;;;;;;;;;5013879;28;20504;-62
2021/06/07 07:08:10;;;;;;;3.45;1.63;;;;;;;;;;5011761;28;20049;-62
2021/06/07 07:10:39;;;;;;;2.33;1.52;;;;;;;;;;5012632;28;20137;-62
2021/06/07 07:13:08;;;;;;;2.83;2.20;;;;;;;;;;5008302;28;20141;-63
2021/06/07 07:15:36;;;;;;;8.07;2.45;;;;;;;;;;5012336;28;20497;-62
2021/06/07 07:18:05;;;;;;;3.58;1.60;;;;;;;;;;5003119;28;20057;-62
2021/06/07 07:20:34;;;;;;;2.25;1.52;;;;;;;;;;5001045;28;20494;-62
2021/06/07 07:23:04;;;;;;;5.72;1.77;;;;;;;;;;4998327;28;20494;-62
2021/06/07 07:25:34;;;;;;;1.70;1.50;;;;;;;;;;5009409;28;20054;-62
2021/06/07 07:28:03;;;;;;;5.00;2.35;;;;;;;;;;5010258;28;20049;-62
2021/06/07 07:30:31;;;;;;;2.10;1.85;;;;;;;;;;5011775;28;20054;-61
2021/06/07 07:33:00;;;;;;;2.80;1.77;;;;;;;;;;5013179;28;20042;-61
2021/06/07 07:35:29;;;;;;;4.57;1.42;;;;;;;;;;5012968;28;20042;-61
2021/06/07 07:37:57;;;;;;;2.97;1.85;;;;;;;;;;5008322;28;20070;-61
2021/06/07 07:40:26;;;;;;;4.38;1.80;;;;;;;;;;5006024;28;20498;-61
2021/06/07 07:42:56;;;;;;;6.18;2.25;;;;;;;;;;5012827;28;20054;-62
2021/06/07 07:45:27;;;;;;;1.98;1.58;;;;;;;;;;5011507;28;20505;-62
2021/06/07 07:47:57;;;;;;;4.05;1.85;;;;;;;;;;5007164;28;20042;-62
2021/06/07 07:50:27;;;;;;;3.60;1.63;;;;;;;;;;5009477;28;20536;-62
2021/06/07 07:52:56;;;;;;;2.63;1.95;;;;;;;;;;5011287;28;20119;-60
2021/06/07 07:55:31;;;;;;;3.67;1.50;;;;;;;;;;5008215;28;20537;-61
2021/06/07 07:58:03;;;;;;;2.05;1.17;;;;;;;;;;5012845;28;20493;-61
2021/06/07 08:00:32;;;;;;;3.20;1.17;;;;;;;;;;5009555;28;20054;-61
2021/06/07 08:03:01;;;;;;;8.48;1.33;;;;;;;;;;5002347;28;20061;-61
2021/06/07 08:05:32;;;;;;;1.95;1.60;;;;;;;;;;5010898;28;20046;-61
2021/06/07 08:08:02;;;;;;;3.78;1.40;;;;;;;;;;4993049;28;20506;-61
2021/06/07 08:10:30;;;;;;;3.22;1.50;;;;;;;;;;5007716;28;20137;-61
2021/06/07 08:12:59;;;;;;;8.75;1.20;;;;;;;;;;5012516;28;20096;-61
2021/06/07 08:15:30;;;;;;;5.75;1.10;;;;;;;;;;5011789;28;21644;-61
2021/06/07 08:18:00;;;;;;;4.10;1.23;;;;;;;;;;5010967;28;20429;-61
2021/06/07 08:20:28;;;;;;;1.98;0.98;;;;;;;;;;5010879;28;20149;-61
2021/06/07 08:22:57;;;;;;;1.48;0.90;;;;;;;;;;5011903;28;20544;-61
2021/06/07 08:25:26;;;;;;;1.63;1.10;;;;;;;;;;5009883;28;20057;-61
2021/06/07 08:27:55;;;;;;;1.33;1.10;;;;;;;;;;4996168;28;20048;-61
2021/06/07 08:30:28;;;;;;;1.77;1.00;;;;;;;;;;5012403;28;20054;-61
2021/06/07 08:32:58;;;;;;;2.90;1.20;;;;;;;;;;5009237;28;20042;-61
2021/06/07 08:35:26;;;;;;;2.40;0.93;;;;;;;;;;5011168;28;20089;-60
2021/06/07 08:37:55;;;;;;;2.78;1.10;;;;;;;;;;5009475;28;20065;-61
2021/06/07 08:40:24;;;;;;;2.38;1.45;;;;;;;;;;5011373;28;20578;-61
2021/06/07 08:42:52;;;;;;;2.50;1.20;;;;;;;;;;5010992;28;20085;-61
2021/06/07 08:45:21;;;;;;;1.70;1.13;;;;;;;;;;5008048;28;20049;-61
2021/06/07 08:47:51;;;;;;;2.25;1.35;;;;;;;;;;5008719;28;20085;-61
2021/06/07 08:50:22;;;;;;;1.77;1.30;;;;;;;;;;5009998;28;20049;-62
2021/06/07 08:52:50;;;;;;;2.70;1.65;;;;;;;;;;5010576;28;20081;-61
2021/06/07 08:55:22;;;;;;;4.38;1.70;;;;;;;;;;5009494;28;20129;-62
2021/06/07 08:57:55;;;;;;;2.85;1.25;;;;;;;;;;5003523;28;20064;-62
2021/06/07 09:00:25;;;;;;;3.35;1.52;;;;;;;;;;5009539;28;20129;-62
2021/06/07 09:02:59;;;;;;;2.15;1.45;;;;;;;;;;5007216;28;20050;-62
2021/06/07 09:05:30;;;;;;;3.87;1.00;;;;;;;;;;5010232;28;20053;-62
2021/06/07 09:08:00;;;;;;;6.88;1.10;;;;;;;;;;5010797;28;20324;-61
2021/06/07 09:10:31;;;;;;;1.10;1.00;;;;;;;;;;5014277;28;20374;-61
2021/06/07 09:13:00;;;;;;;4.55;1.30;;;;;;;;;;5010610;28;20592;-60
2021/06/07 09:15:35;;;;;;;2.72;1.13;;;;;;;;;;5010077;28;20108;-61
2021/06/07 09:18:05;;;;;;;1.73;1.20;;;;;;;;;;5014701;28;20045;-61
2021/06/07 09:20:36;;;;;;;2.80;1.10;;;;;;;;;;5005420;28;20052;-61
2021/06/07 09:23:06;;;;;;;1.55;0.90;;;;;;;;;;5007344;28;20056;-61
2021/06/07 09:25:35;;;;;;;0.80;0.73;;;;;;;;;;5005397;28;20050;-61
2021/06/07 09:28:06;;;;;;;1.23;0.70;;;;;;;;;;5009964;28;20144;-61
2021/06/07 09:30:34;;;;;;;5.65;1.00;;;;;;;;;;5007702;28;20046;-61
2021/06/07 09:33:22;;;;;;;1.77;1.05;;;;;;;;;;5006917;28;20125;-60
2021/06/07 09:39:12;;;;;;;1.00;0.90;;;;;;;;;;5164555;27;20125;-61
2021/06/07 09:41:50;;;;;;;1.98;1.00;;;;;;;;;;5146102;27;20092;-61
2021/06/07 09:44:30;;;;;;;4.00;1.30;;;;;;;;;;5146546;27;20083;-61
2021/06/07 09:47:14;;;;;;;3.28;1.00;;;;;;;;;;5130769;27;20043;-60
2021/06/07 09:49:44;;;;;;;6.93;1.45;;;;;;;;;;5093532;28;20040;-61
2021/06/07 09:52:14;;;;;;;2.13;1.02;;;;;;;;;;5095475;28;20048;-62
2021/06/07 09:54:43;;;;;;;1.75;0.90;;;;;;;;;;5098768;28;20075;-61
2021/06/07 09:57:13;;;;;;;1.10;0.82;;;;;;;;;;5097992;28;20044;-61
2021/06/07 09:59:46;;;;;;;1.13;0.82;;;;;;;;;;5099870;28;20044;-61
2021/06/07 10:02:16;;;;;;;2.00;1.13;;;;;;;;;;5102158;28;20067;-61
2021/06/07 10:04:48;;;;;;;3.80;0.80;;;;;;;;;;5069786;28;20052;-60
2021/06/07 10:07:16;;;;;;;1.20;1.02;;;;;;;;;;5071045;28;20056;-61
2021/06/07 10:09:59;;;;;;;1.45;1.10;;;;;;;;;;5071564;28;20052;-61
2021/06/07 10:12:28;;;;;;;3.13;1.05;;;;;;;;;;5065068;28;20052;-61
2021/06/07 10:14:58;;;;;;;1.25;1.10;;;;;;;;;;5076691;28;20044;-61
2021/06/07 10:17:27;;;;;;;2.45;1.13;;;;;;;;;;5070789;28;20174;-61
2021/06/07 10:22:38;;;;;;;2.00;0.95;;;;;;;;;;5078757;28;20077;-61
2021/06/07 10:25:07;;;;;;;2.15;0.90;;;;;;;;;;5078687;28;20129;-61
2021/06/07 10:27:37;;;;;;;2.45;1.20;;;;;;;;;;5077785;28;20079;-61
2021/06/07 10:30:17;;;;;;;1.38;1.00;;;;;;;;;;5071956;28;20313;-61
2021/06/07 10:32:46;;;;;;;1.40;1.30;;;;;;;;;;5071811;28;20052;-61
2021/06/07 10:35:27;;;;;;;3.95;1.25;;;;;;;;;;5066591;28;20079;-60
2021/06/07 10:38:08;;;;;;;1.80;1.30;;;;;;;;;;5072959;28;20167;-60
2021/06/07 10:40:40;;;;;;;2.63;1.10;;;;;;;;;;5070517;28;20086;-60
2021/06/07 10:43:10;;;;;;;1.30;1.10;;;;;;;;;;5078889;28;20535;-60
2021/06/07 10:45:39;;;;;;;1.88;0.90;;;;;;;;;;5075968;28;20429;-60
2021/06/07 10:48:08;;;;;;;2.88;1.38;;;;;;;;;;5075331;28;20056;-60
2021/06/07 10:50:39;;;;;;;5.38;1.60;;;;;;;;;;5069672;28;20123;-60
2021/06/07 10:53:08;;;;;;;1.85;1.40;;;;;;;;;;5070650;28;20114;-60
2021/06/07 10:55:38;;;;;;;5.53;1.90;;;;;;;;;;5071080;28;20048;-60
2021/06/07 10:58:07;;;;;;;2.53;1.40;;;;;;;;;;5072589;28;20526;-60
2021/06/07 11:00:39;;;;;;;2.00;1.80;;;;;;;;;;5067814;28;20052;-60
2021/06/07 11:03:18;;;;;;;2.72;2.53;;;;;;;;;;5054875;28;20048;-61
2021/06/07 11:05:47;;;;;;;1.83;1.65;;;;;;;;;;5071174;28;20056;-60
2021/06/07 11:08:17;;;;;;;2.70;2.50;;;;;;;;;;5068661;28;20049;-60
2021/06/07 11:10:47;;;;;;;7.80;2.22;;;;;;;;;;5057320;28;20053;-60
2021/06/07 11:13:15;;;;;;;4.80;2.90;;;;;;;;;;5052871;28;20497;-60
2021/06/07 11:15:53;;;;;;;3.72;3.33;;;;;;;;;;5058305;28;20045;-60
2021/06/07 11:18:27;;;;;;;4.60;2.75;;;;;;;;;;5050567;28;20072;-60
2021/06/07 11:20:57;;;;;;;3.13;2.55;;;;;;;;;;5053235;28;20052;-60
2021/06/07 11:23:32;;;;;;;3.70;2.78;;;;;;;;;;5059007;28;20114;-60
2021/06/07 11:26:01;;;;;;;4.82;4.03;;;;;;;;;;5053976;28;20095;-60
2021/06/07 11:28:33;;;;;;;3.00;2.70;;;;;;;;;;5049187;28;20091;-60
2021/06/07 11:31:03;;;;;;;3.55;2.88;;;;;;;;;;5045904;28;20136;-60
2021/06/07 11:33:46;;;;;;;4.68;2.42;;;;;;;;;;5035983;28;20128;-60
2021/06/07 11:36:42;;;;;;;3.90;3.22;;;;;;;;;;5033402;28;20064;-60
2021/06/07 11:39:29;;;;;;;4.68;3.20;;;;;;;;;;5044323;28;20113;-60
2021/06/07 11:42:04;;;;;;;3.78;3.38;;;;;;;;;;5050408;28;20668;-60
2021/06/07 11:44:53;;;;;;;3.80;3.15;;;;;;;;;;5041405;28;20049;-59
2021/06/07 11:47:25;;;;;;;7.03;3.70;;;;;;;;;;5036588;28;20458;-59
2021/06/07 11:50:07;;;;;;;4.40;2.63;;;;;;;;;;5036685;28;20049;-59
2021/06/07 11:52:50;;;;;;;5.65;4.97;;;;;;;;;;5043522;28;20081;-59
2021/06/07 11:55:27;;;;;;;4.97;4.43;;;;;;;;;;5046835;28;20048;-60
2021/06/07 11:58:19;;;;;;;4.38;3.10;;;;;;;;;;5059447;28;20051;-60
2021/06/07 12:00:50;;;;;;;5.32;3.08;;;;;;;;;;5036242;28;20236;-59
2021/06/07 12:03:20;;;;;;;5.97;3.60;;;;;;;;;;5063436;28;20053;-59
2021/06/07 12:05:49;;;;;;;4.75;4.20;;;;;;;;;;5052846;28;20055;-59
2021/06/07 12:08:19;;;;;;;6.88;3.40;;;;;;;;;;5051711;28;20053;-59
2021/06/07 12:10:51;;;;;;;6.03;3.63;;;;;;;;;;5064004;28;20071;-60
2021/06/07 12:13:21;;;;;;;5.28;2.90;;;;;;;;;;5061270;28;20044;-59
2021/06/07 12:15:51;;;;;;;4.25;3.85;;;;;;;;;;5066639;28;20861;-59
2021/06/07 12:18:38;;;;;;;6.70;4.03;;;;;;;;;;5070199;28;20492;-59
2021/06/07 12:21:08;;;;;;;5.05;4.55;;;;;;;;;;5064183;28;20080;-59
2021/06/07 12:23:40;;;;;;;4.45;3.67;;;;;;;;;;5055773;28;20209;-59
2021/06/07 12:29:28;;;;;;;3.63;3.33;;;;;;;;;;5062633;28;20045;-60
2021/06/07 12:32:03;;;;;;;3.50;3.20;;;;;;;;;;5056570;28;20141;-59
2021/06/07 12:34:33;;;;;;;3.58;3.00;;;;;;;;;;5060228;28;20637;-59
2021/06/07 12:37:01;;;;;;;4.00;2.88;;;;;;;;;;5050770;28;20057;-59
2021/06/07 12:39:30;;;;;;;4.78;3.00;;;;;;;;;;5043074;28;20049;-59
2021/06/07 12:42:04;;;;;;;3.23;2.93;;;;;;;;;;1519374;28;10022736;-60
2021/06/07 12:44:32;;;;;;;4.75;3.28;;;;;;;;;;3989616;28;10001487;-59
2021/06/07 12:47:00;;;;;;;4.03;2.80;;;;;;;;;;5029017;28;20041;-59
2021/06/07 12:49:29;;;;;;;8.48;4.32;;;;;;;;;;5021151;28;20081;-59
2021/06/07 12:52:00;;;;;;;4.28;3.28;;;;;;;;;;5028681;28;20139;-59
2021/06/07 12:54:30;;;;;;;5.30;3.85;;;;;;;;;;5029310;28;20111;-59
2021/06/07 12:56:59;;;;;;;3.75;3.22;;;;;;;;;;5019196;28;20058;-59
2021/06/07 12:59:28;;;;;;;5.00;3.65;;;;;;;;;;5009328;28;20064;-59
2021/06/07 13:01:58;;;;;;;4.25;3.88;;;;;;;;;;5010411;28;20580;-60
2021/06/07 13:04:27;;;;;;;4.05;3.03;;;;;;;;;;5010871;28;20054;-60
2021/06/07 13:06:55;;;;;;;5.75;3.78;;;;;;;;;;5014804;28;20057;-59
2021/06/07 13:09:35;;;;;;;3.67;3.30;;;;;;;;;;5021837;28;20115;-59
2021/06/07 13:12:04;;;;;;;3.45;2.80;;;;;;;;;;5028357;28;20115;-59
2021/06/07 13:14:33;;;;;;;3.53;3.10;;;;;;;;;;5020754;28;20504;-59
2021/06/07 13:17:11;;;;;;;4.05;2.85;;;;;;;;;;5009388;28;20405;-60
2021/06/07 13:19:44;;;;;;;4.78;3.22;;;;;;;;;;5006339;28;20103;-60
2021/06/07 13:22:16;;;;;;;4.40;3.22;;;;;;;;;;5007222;28;20662;-59
2021/06/07 13:24:47;;;;;;;4.82;2.80;;;;;;;;;;5010168;28;20050;-59
2021/06/07 13:27:20;;;;;;;9.30;3.33;;;;;;;;;;5003794;28;20061;-59
2021/06/07 13:29:49;;;;;;;5.68;3.10;;;;;;;;;;5011277;28;20054;-60
2021/06/07 13:32:26;;;;;;;3.92;2.83;;;;;;;;;;5005098;28;20533;-60
2021/06/07 13:34:55;;;;;;;5.60;3.20;;;;;;;;;;5007442;28;20049;-59
2021/06/07 13:37:25;;;;;;;3.75;3.10;;;;;;;;;;5008892;28;20053;-60
2021/06/07 13:39:59;;;;;;;3.67;3.10;;;;;;;;;;5011683;28;20421;-60
2021/06/07 13:42:46;;;;;;;3.60;3.20;;;;;;;;;;5011511;28;20058;-60
2021/06/07 13:45:15;;;;;;;3.47;3.15;;;;;;;;;;5009218;28;20046;-59
2021/06/07 13:47:50;;;;;;;4.35;3.10;;;;;;;;;;5003694;28;20210;-59
2021/06/07 13:50:19;;;;;;;4.18;3.78;;;;;;;;;;5005145;28;20081;-60
2021/06/07 13:52:49;;;;;;;4.38;3.00;;;;;;;;;;5011451;28;20058;-60
2021/06/07 13:55:27;;;;;;;4.10;3.42;;;;;;;;;;5011572;28;20050;-59
2021/06/07 13:58:13;;;;;;;4.68;3.55;;;;;;;;;;5010611;28;20054;-59
2021/06/07 14:00:42;;;;;;;5.85;3.17;;;;;;;;;;5010741;28;20106;-60
2021/06/07 14:03:12;;;;;;;5.15;3.88;;;;;;;;;;5004984;28;20494;-59
2021/06/07 14:05:42;;;;;;;4.78;3.42;;;;;;;;;;5007978;28;20050;-59
2021/06/07 14:08:10;;;;;;;12.35;4.47;;;;;;;;;;5009291;28;20050;-60
2021/06/07 14:10:40;;;;;;;5.10;4.50;;;;;;;;;;5012153;28;20530;-60
2021/06/07 14:13:09;;;;;;;5.05;4.55;;;;;;;;;;5010180;28;20077;-59
2021/06/07 14:15:37;;;;;;;5.03;4.53;;;;;;;;;;5005835;28;20085;-59
2021/06/07 14:18:09;;;;;;;8.77;5.03;;;;;;;;;;5020026;28;20088;-61
2021/06/07 14:20:39;;;;;;;5.45;4.10;;;;;;;;;;5020609;28;20332;-59
2021/06/07 14:26:04;;;;;;;4.90;4.35;;;;;;;;;;5020538;28;20053;-60
2021/06/07 14:28:32;;;;;;;7.05;4.60;;;;;;;;;;5004608;28;20145;-60
2021/06/07 14:31:01;;;;;;;5.95;4.97;;;;;;;;;;5001100;28;20059;-60
2021/06/07 14:33:29;;;;;;;4.35;3.95;;;;;;;;;;5008409;28;20061;-60
2021/06/07 14:35:59;;;;;;;5.88;5.18;;;;;;;;;;5010584;28;20081;-60
2021/06/07 14:38:28;;;;;;;6.60;4.43;;;;;;;;;;5031588;28;20057;-60
2021/06/07 14:41:02;;;;;;;5.93;4.72;;;;;;;;;;5020858;28;20111;-60
2021/06/07 14:43:31;;;;;;;5.40;4.50;;;;;;;;;;5031039;28;20060;-58
2021/06/07 14:46:01;;;;;;;5.53;5.03;;;;;;;;;;5026694;28;20068;-59
2021/06/07 14:48:30;;;;;;;9.68;5.25;;;;;;;;;;5022079;28;20460;-59
2021/06/07 14:50:58;;;;;;;7.07;4.93;;;;;;;;;;5026526;28;20580;-59
2021/06/07 14:53:26;;;;;;;7.18;4.50;;;;;;;;;;5017960;28;20103;-59
2021/06/07 14:55:55;;;;;;;5.50;5.00;;;;;;;;;;5025075;28;20140;-59
2021/06/07 14:58:23;;;;;;;5.70;5.03;;;;;;;;;;5033143;28;20577;-61
2021/06/07 15:00:55;;;;;;;5.55;4.63;;;;;;;;;;5030153;28;20492;-61
2021/06/07 15:03:24;;;;;;;5.57;5.05;;;;;;;;;;5017418;28;20053;-61
2021/06/07 15:05:52;;;;;;;7.13;5.20;;;;;;;;;;5033094;28;20127;-61
2021/06/07 15:08:21;;;;;;;6.20;5.00;;;;;;;;;;5034456;28;20107;-61
2021/06/07 15:10:50;;;;;;;6.18;5.38;;;;;;;;;;5031875;28;20053;-61
2021/06/07 15:13:18;;;;;;;5.35;4.85;;;;;;;;;;5031344;28;20071;-61